Nearby METAR Reports

 

LIBV - Gioia Del Colle, Italy
Distance from station: PdPdWs 15km
Aktualizacja: 21/06/2018 09:55
Bezchmurnie
Bezchmurnie
 Wiatr z Pn
Wiatr: Pn 4 km/h
Temperatura: 26°C
Punkt Rosy: 11°C
Wilgotność: 39%
Ciśnienie: 1018 hPa
Podsumowanie: Bezchmurnie
Visibility: greater than 10 km
2018/06/21 07:55 LIBV 210755Z 36002KT CAVOK 26/11 Q1018 RMK SKC VIS MIN 9999 WIND THR32 /////KT WIND THR14 36004KT BLU
LIBD - Bari/Palese Macc, Italy
Distance from station: PnPnZd 26km
Aktualizacja: 21/06/2018 10:20
Bezchmurnie
Bezchmurnie
 Wiatr z Pn
Wiatr: Pn 11 km/h
Temperatura: 27°C
Heat Index: 28°C
Punkt Rosy: 19°C
Wilgotność: 62%
Ciśnienie: 1017 hPa
Podsumowanie: Bezchmurnie
Visibility: greater than 10 km
2018/06/21 08:20 LIBD 210820Z 01006KT 340V060 CAVOK 27/19 Q1017
LIBH - Marina Di Ginosa, Italy
Distance from station: Pd 53km
Aktualizacja: 21/06/2018 09:55
Bezchmurnie
Bezchmurnie
 Wiatr z ZdPnZd
Wiatr: ZdPnZd 6 km/h
Temperatura: 28°C
Heat Index: 28°C
Punkt Rosy: 17°C
Wilgotność: 51%
Ciśnienie: 1017 hPa
Podsumowanie: Bezchmurnie
Visibility: greater than 10 km
2018/06/21 07:55 LIBH 210755Z 30003KT CAVOK 28/17 Q1017 RMK SKC QUK 0 QUL 0 VIS MAR 20 KM VIS MIN 9999
 
LIBG - Grottaglie(Civ/A, Italy
Distance from station: PdWs 61km
Aktualizacja: 21/06/2018 09:50
Bezchmurnie
Bezchmurnie
 Wiatr z ZdPnZd
Wiatr: ZdPnZd 4 km/h
Temperatura: 28°C
Heat Index: 28°C
Punkt Rosy: 16°C
Wilgotność: 48%
Ciśnienie: 1016 hPa
Podsumowanie: Bezchmurnie
Visibility: greater than 10 km
2018/06/21 07:50 LIBG 210750Z 29002KT CAVOK 28/16 Q1016
LIBR - Brindisi/Casale, Italy
Distance from station: WsPdWs 96km
Aktualizacja: 21/06/2018 10:20
Bezchmurnie
Bezchmurnie
 Wiatr z PnPnZd
Wiatr: PnPnZd 15 km/h
Temperatura: 25°C
Punkt Rosy: 21°C
Wilgotność: 79%
Ciśnienie: 1017 hPa
Podsumowanie: Bezchmurnie
Visibility: greater than 10 km
2018/06/21 08:20 LIBR 210820Z 33008KT 300V360 CAVOK 25/21 Q1017
LIBA - Amendola (it-Afb, Italy
Distance from station: PnZd 118km
Aktualizacja: 21/06/2018 09:55
Bezchmurnie
Bezchmurnie
 Wiatr z varies
Wiatr: varies 6 km/h
Temperatura: 27°C
Heat Index: 28°C
Punkt Rosy: 17°C
Wilgotność: 54%
Ciśnienie: 1017 hPa
Podsumowanie: Bezchmurnie
Visibility: greater than 10 km
2018/06/21 07:55 LIBA 210755Z VRB03KT CAVOK 27/17 Q1017 RMK FEW FEW200 VIS MIN 9999 WIND THR11 23002KT WIND THR29 /////KT BLU
 
LIBF - Foggia/Gino Lisa, Italy
Distance from station: ZdPnZd 126km
Aktualizacja: 21/06/2018 09:50
Bezchmurnie
Bezchmurnie
 Wiatr z calm
Wiatr: Cisza
Temperatura: 27°C
Heat Index: 28°C
Punkt Rosy: 16°C
Wilgotność: 51%
Ciśnienie: 1017 hPa
Podsumowanie: Bezchmurnie
Visibility: greater than 10 km
2018/06/21 07:50 LIBF 210750Z 00000KT CAVOK 27/16 Q1017
LIBN - Lecce (it-Afb), Italy
Distance from station: PdWs 132km
Aktualizacja: 21/06/2018 09:55
Częściowe zachmurzenie
Częściowe zachmurzenie
 Wiatr z Pn
Wiatr: Pn 11 km/h
Temperatura: 25°C
Punkt Rosy: 22°C
Wilgotność: 83%
Ciśnienie: 1016 hPa
Clouds: Częściowe zachmurzenie
Visibility: 10 km
Cloud details: Few Clouds 457 m
Częściowe zachmurzenie 610 m
2018/06/21 07:55 LIBN 210755Z 36006KT 9999 FEW015 SCT020 25/22 Q1016 RMK BKN BKN120 VIS MIN 9999 WIND THR14 35005KT WIND THR32 35006KT BLU